createdAt,value
2023-05-18T00:01:00.378Z,8.63
2023-05-18T00:03:33.516Z,8.73
2023-05-18T00:06:07.397Z,8.69
2023-05-18T00:08:38.759Z,8.64
2023-05-18T00:11:10.257Z,8.61
2023-05-18T00:13:41.625Z,8.57
2023-05-18T00:16:15.660Z,8.55
2023-05-18T00:18:47.362Z,8.52
2023-05-18T00:21:18.696Z,8.47
2023-05-18T00:23:50.365Z,8.48
2023-05-18T00:26:22.016Z,8.44
2023-05-18T00:28:53.425Z,8.37
2023-05-18T00:31:24.768Z,8.48
2023-05-18T00:33:56.123Z,8.40
2023-05-18T00:36:27.457Z,8.46
2023-05-18T00:38:59.433Z,8.41
2023-05-18T00:41:31.178Z,8.36
2023-05-18T00:44:04.580Z,8.58
2023-05-18T00:46:36.379Z,8.61
2023-05-18T00:49:07.805Z,8.59
2023-05-18T00:51:40.658Z,8.61
2023-05-18T00:54:12.223Z,8.63
2023-05-18T00:56:46.199Z,8.60
2023-05-18T00:59:18.570Z,8.60
2023-05-18T01:01:51.391Z,8.61
2023-05-18T01:04:24.730Z,8.65
2023-05-18T01:06:56.536Z,8.67
2023-05-18T01:09:27.911Z,8.69
2023-05-18T01:12:24.826Z,8.71
2023-05-18T01:15:08.013Z,8.71
2023-05-18T01:18:04.574Z,8.71
2023-05-18T01:20:39.283Z,8.67
2023-05-18T01:23:25.917Z,8.70
2023-05-18T01:26:04.975Z,8.70
2023-05-18T01:28:36.399Z,8.70
2023-05-18T01:31:08.118Z,8.69
2023-05-18T01:33:39.534Z,8.62
2023-05-18T01:36:11.459Z,8.66
2023-05-18T01:38:44.268Z,8.65
2023-05-18T01:41:24.544Z,8.65
2023-05-18T01:44:21.956Z,8.69
2023-05-18T01:47:01.253Z,8.67
2023-05-18T01:49:41.200Z,8.67
2023-05-18T01:52:37.417Z,8.68
2023-05-18T01:55:10.630Z,8.69
2023-05-18T01:57:44.405Z,8.70
2023-05-18T02:00:17.479Z,8.60
2023-05-18T02:02:49.370Z,8.58
2023-05-18T02:05:20.909Z,8.64
2023-05-18T02:07:52.392Z,8.73
2023-05-18T02:10:23.868Z,8.74
2023-05-18T02:12:55.279Z,8.61
2023-05-18T02:15:26.602Z,8.71
2023-05-18T02:17:58.167Z,8.70
2023-05-18T02:20:33.323Z,8.67
2023-05-18T02:23:04.686Z,8.66
2023-05-18T02:25:37.098Z,8.64
2023-05-18T02:28:08.517Z,8.56
2023-05-18T02:30:39.896Z,8.70
2023-05-18T02:33:11.315Z,8.73
2023-05-18T02:35:42.655Z,8.75
2023-05-18T02:38:13.978Z,8.76
2023-05-18T02:40:45.320Z,8.75
2023-05-18T02:43:16.719Z,8.72
2023-05-18T02:45:48.194Z,8.69
2023-05-18T02:48:19.527Z,8.67
2023-05-18T02:50:51.173Z,8.65
2023-05-18T02:53:22.951Z,8.62
2023-05-18T02:55:57.088Z,8.64
2023-05-18T02:58:28.632Z,8.68
2023-05-18T03:01:00.382Z,8.66
2023-05-18T03:03:31.810Z,8.77
2023-05-18T03:06:04.099Z,8.75
2023-05-18T03:08:37.110Z,8.68
2023-05-18T03:11:08.487Z,8.70
2023-05-18T03:13:39.827Z,8.73
2023-05-18T03:16:11.230Z,8.71
2023-05-18T03:18:42.653Z,8.71
2023-05-18T03:21:14.131Z,8.72
2023-05-18T03:23:45.456Z,8.73
2023-05-18T03:26:16.963Z,8.69
2023-05-18T03:28:48.268Z,8.64
2023-05-18T03:31:19.725Z,8.62
2023-05-18T03:33:51.158Z,8.62
2023-05-18T03:36:22.660Z,8.59
2023-05-18T03:38:54.245Z,8.68
2023-05-18T03:41:25.644Z,8.70
2023-05-18T03:43:57.205Z,8.68
2023-05-18T03:46:28.580Z,8.67
2023-05-18T03:48:59.927Z,8.49
2023-05-18T03:51:31.761Z,8.50
2023-05-18T03:54:03.122Z,8.64
2023-05-18T03:56:34.436Z,8.63
2023-05-18T03:59:06.494Z,8.64
2023-05-18T04:01:38.222Z,8.58
2023-05-18T04:04:17.780Z,8.63
2023-05-18T04:06:51.492Z,8.71
2023-05-18T04:09:23.826Z,8.72
2023-05-18T04:11:55.411Z,8.76
2023-05-18T04:14:28.059Z,8.79
2023-05-18T04:17:04.910Z,8.73
2023-05-18T04:19:37.816Z,8.86
2023-05-18T04:22:09.758Z,8.91
2023-05-18T04:24:45.717Z,8.94
2023-05-18T04:27:17.087Z,8.98
2023-05-18T04:29:49.157Z,8.98
2023-05-18T04:32:20.717Z,8.82
2023-05-18T04:34:52.205Z,8.94
2023-05-18T04:37:23.678Z,9.03
2023-05-18T04:39:55.001Z,9.05
2023-05-18T04:42:27.516Z,8.98
2023-05-18T04:45:00.135Z,9.09
2023-05-18T04:47:32.750Z,8.94
2023-05-18T04:50:05.794Z,9.18
2023-05-18T04:52:37.093Z,9.24
2023-05-18T04:55:10.812Z,9.27
2023-05-18T04:57:42.447Z,9.31
2023-05-18T05:00:14.945Z,9.36
2023-05-18T05:02:46.397Z,9.42
2023-05-18T05:05:18.804Z,9.43
2023-05-18T05:07:51.588Z,9.44
2023-05-18T05:10:23.344Z,9.41
2023-05-18T05:12:54.710Z,9.58
2023-05-18T05:15:26.223Z,9.46
2023-05-18T05:17:58.465Z,9.67
2023-05-18T05:20:29.848Z,9.78
2023-05-18T05:23:01.193Z,9.87
2023-05-18T05:25:32.902Z,9.88
2023-05-18T05:28:04.507Z,9.90
2023-05-18T05:30:36.212Z,9.96
2023-05-18T05:33:07.735Z,10.11
2023-05-18T05:35:39.137Z,10.19
2023-05-18T05:38:10.664Z,10.23
2023-05-18T05:40:42.090Z,10.33
2023-05-18T05:43:13.432Z,10.33
2023-05-18T05:45:44.771Z,10.40
2023-05-18T05:48:16.256Z,10.39
2023-05-18T05:50:47.670Z,10.53
2023-05-18T05:53:19.801Z,10.33
2023-05-18T05:55:51.210Z,10.54
2023-05-18T05:58:22.652Z,10.44
2023-05-18T06:00:54.465Z,10.56
2023-05-18T06:03:26.452Z,10.59
2023-05-18T06:05:58.030Z,10.51
2023-05-18T06:08:29.421Z,10.65
2023-05-18T06:11:00.924Z,10.85
2023-05-18T06:13:32.259Z,10.86
2023-05-18T06:16:03.794Z,10.93
2023-05-18T06:18:35.351Z,10.93
2023-05-18T06:21:06.731Z,10.80
2023-05-18T06:23:41.798Z,10.86
2023-05-18T06:26:13.494Z,10.84
2023-05-18T06:28:44.941Z,10.82
2023-05-18T06:31:17.014Z,10.74
2023-05-18T06:33:48.388Z,10.91
2023-05-18T06:36:19.907Z,11.14
2023-05-18T06:38:51.604Z,11.45
2023-05-18T06:41:23.008Z,11.54
2023-05-18T06:43:54.408Z,11.71
2023-05-18T06:46:26.583Z,11.42
2023-05-18T06:48:58.047Z,11.55
2023-05-18T06:51:29.527Z,11.46
2023-05-18T06:54:00.938Z,11.57
2023-05-18T06:56:32.267Z,11.48
2023-05-18T06:59:03.592Z,11.65
2023-05-18T07:01:34.991Z,11.70
2023-05-18T07:04:06.734Z,11.68
2023-05-18T07:06:38.317Z,11.77
2023-05-18T07:09:09.750Z,11.81
2023-05-18T07:11:41.125Z,11.91
2023-05-18T07:14:12.544Z,11.89
2023-05-18T07:16:47.352Z,11.81
2023-05-18T07:19:18.832Z,12.08
2023-05-18T07:21:50.243Z,12.28
2023-05-18T07:24:21.565Z,12.63
2023-05-18T07:26:52.961Z,12.80
2023-05-18T07:29:24.546Z,13.23
2023-05-18T07:31:55.952Z,13.46
2023-05-18T07:34:27.334Z,13.54
2023-05-18T07:36:59.125Z,13.44
2023-05-18T07:39:30.545Z,13.46
2023-05-18T07:42:01.992Z,13.40
2023-05-18T07:44:33.374Z,13.49
2023-05-18T07:47:05.050Z,13.65
2023-05-18T07:49:36.443Z,13.66
2023-05-18T07:52:08.297Z,13.93
2023-05-18T07:54:39.641Z,14.06
2023-05-18T07:57:11.046Z,14.36
2023-05-18T07:59:42.618Z,14.65
2023-05-18T08:02:20.516Z,15.02
2023-05-18T08:04:52.050Z,15.42
2023-05-18T08:07:26.337Z,15.79
2023-05-18T08:09:57.840Z,16.26
2023-05-18T08:12:29.953Z,16.47
2023-05-18T08:15:01.390Z,16.79
2023-05-18T08:17:32.712Z,16.50
2023-05-18T08:20:05.964Z,16.17
2023-05-18T08:22:37.396Z,15.65
2023-05-18T08:25:10.180Z,15.34
2023-05-18T08:27:41.563Z,15.18
2023-05-18T08:30:13.526Z,15.14
2023-05-18T08:32:45.005Z,14.91
2023-05-18T08:35:16.410Z,14.88
2023-05-18T08:37:49.984Z,14.85
2023-05-18T08:40:21.498Z,14.78
2023-05-18T08:43:18.993Z,15.17
2023-05-18T08:45:58.704Z,15.31
2023-05-18T08:48:32.580Z,15.41
2023-05-18T08:51:06.576Z,15.69
2023-05-18T08:53:38.134Z,15.87
2023-05-18T08:56:11.282Z,16.05
2023-05-18T08:58:48.884Z,16.09
2023-05-18T09:01:20.699Z,15.89
2023-05-18T09:03:53.395Z,15.70
2023-05-18T09:06:26.129Z,15.80
2023-05-18T09:08:58.288Z,15.92
2023-05-18T09:11:31.985Z,16.30
2023-05-18T09:14:03.614Z,16.46
2023-05-18T09:16:35.596Z,16.67
2023-05-18T09:19:07.156Z,16.50
2023-05-18T09:21:38.850Z,16.45
2023-05-18T09:24:11.592Z,16.35
2023-05-18T09:26:43.123Z,16.17
2023-05-18T09:29:19.587Z,16.00
2023-05-18T09:31:51.882Z,15.71
2023-05-18T09:34:24.441Z,15.50
2023-05-18T09:36:57.718Z,15.43
2023-05-18T09:39:29.040Z,15.56
2023-05-18T09:42:03.585Z,15.44
2023-05-18T09:44:35.148Z,15.30
2023-05-18T09:47:10.512Z,15.27
2023-05-18T09:49:41.948Z,15.35
2023-05-18T09:52:13.457Z,15.24
2023-05-18T09:54:57.494Z,15.11
2023-05-18T09:57:28.929Z,15.10
2023-05-18T10:00:10.585Z,15.32
2023-05-18T10:02:49.022Z,15.69
2023-05-18T10:05:36.320Z,15.85
2023-05-18T10:08:08.019Z,15.60
2023-05-18T10:10:42.618Z,15.42
2023-05-18T10:13:17.975Z,15.31
2023-05-18T10:15:55.367Z,15.35
2023-05-18T10:18:28.738Z,15.37
2023-05-18T10:21:02.582Z,15.63
2023-05-18T10:23:35.667Z,15.76
2023-05-18T10:26:09.567Z,15.87
2023-05-18T10:28:50.038Z,16.05
2023-05-18T10:31:23.312Z,15.86
2023-05-18T10:33:55.835Z,15.89
2023-05-18T10:36:30.066Z,15.86
2023-05-18T10:39:03.174Z,15.78
2023-05-18T10:41:37.713Z,15.63
2023-05-18T10:44:10.168Z,15.89
2023-05-18T10:46:42.649Z,16.01
2023-05-18T10:49:17.320Z,15.97
2023-05-18T10:51:49.655Z,15.90
2023-05-18T10:54:23.435Z,15.68
2023-05-18T10:56:55.251Z,15.60
2023-05-18T10:59:27.650Z,15.79
2023-05-18T11:02:01.461Z,16.02
2023-05-18T11:04:33.082Z,16.37
2023-05-18T11:07:13.878Z,16.44
2023-05-18T11:09:45.304Z,16.72
2023-05-18T11:12:20.145Z,16.61
2023-05-18T11:14:53.250Z,16.67
2023-05-18T11:17:26.039Z,16.95
2023-05-18T11:20:04.288Z,17.19
2023-05-18T11:22:57.286Z,17.54
2023-05-18T11:25:28.814Z,17.87
2023-05-18T11:28:04.551Z,18.06
2023-05-18T11:30:42.077Z,17.88
2023-05-18T11:33:27.512Z,17.39
2023-05-18T11:36:12.161Z,16.88
2023-05-18T11:39:22.951Z,16.67
2023-05-18T11:42:08.993Z,16.77
2023-05-18T11:44:40.975Z,17.10
2023-05-18T11:47:12.487Z,17.43
2023-05-18T11:49:46.310Z,17.56
2023-05-18T11:52:25.151Z,17.45
2023-05-18T11:55:00.763Z,17.49
2023-05-18T11:57:35.273Z,17.43
2023-05-18T12:00:10.313Z,17.36
2023-05-18T12:02:48.776Z,17.18
2023-05-18T12:05:21.207Z,17.08
2023-05-18T12:07:54.190Z,17.36
2023-05-18T12:10:25.835Z,17.67
2023-05-18T12:12:58.789Z,17.71
2023-05-18T12:15:30.403Z,17.46
2023-05-18T12:18:01.758Z,17.32
2023-05-18T12:20:35.488Z,17.28
2023-05-18T12:23:06.812Z,17.23
2023-05-18T12:25:38.429Z,17.45
2023-05-18T12:28:09.856Z,17.66
2023-05-18T12:30:43.876Z,17.64
2023-05-18T12:33:15.279Z,17.49
2023-05-18T12:35:46.622Z,17.33
2023-05-18T12:38:18.148Z,17.21
2023-05-18T12:40:52.692Z,17.32
2023-05-18T12:43:26.543Z,17.35
2023-05-18T12:46:01.516Z,17.60
2023-05-18T12:48:37.761Z,17.57
2023-05-18T12:51:18.041Z,17.63
2023-05-18T12:53:50.571Z,17.90
2023-05-18T12:56:25.190Z,18.33
2023-05-18T12:59:02.926Z,18.65
2023-05-18T13:01:41.758Z,18.86
2023-05-18T13:04:13.519Z,18.86
2023-05-18T13:06:45.086Z,18.71
2023-05-18T13:09:16.703Z,18.62
2023-05-18T13:12:00.242Z,18.64
2023-05-18T13:14:38.578Z,18.76
2023-05-18T13:17:10.065Z,18.63
2023-05-18T13:19:41.405Z,18.36
2023-05-18T13:22:15.508Z,18.24
2023-05-18T13:24:46.982Z,18.29
2023-05-18T13:27:18.280Z,18.41
2023-05-18T13:29:49.589Z,18.26
2023-05-18T13:32:20.913Z,18.15
2023-05-18T13:34:52.524Z,17.96
2023-05-18T13:37:24.403Z,18.08
2023-05-18T13:39:55.939Z,17.90
2023-05-18T13:42:27.402Z,17.93
2023-05-18T13:44:58.754Z,18.08
2023-05-18T13:47:30.112Z,18.42
2023-05-18T13:50:01.491Z,18.64
2023-05-18T13:52:33.299Z,18.76
2023-05-18T13:55:07.007Z,18.72
2023-05-18T13:57:38.331Z,18.53
2023-05-18T14:00:12.892Z,18.58
2023-05-18T14:02:44.513Z,18.67
2023-05-18T14:05:16.390Z,18.65
2023-05-18T14:07:48.028Z,18.54
2023-05-18T14:10:19.602Z,18.64
2023-05-18T14:12:50.947Z,18.64
2023-05-18T14:15:22.350Z,18.67
2023-05-18T14:17:53.759Z,18.78
2023-05-18T14:20:25.183Z,18.84
2023-05-18T14:22:56.625Z,18.78
2023-05-18T14:25:27.952Z,18.70
2023-05-18T14:27:59.331Z,18.54
2023-05-18T14:30:30.920Z,18.46
2023-05-18T14:33:02.468Z,18.39
2023-05-18T14:35:34.076Z,18.56
2023-05-18T14:38:05.488Z,18.74
2023-05-18T14:40:36.906Z,18.88
2023-05-18T14:43:08.347Z,18.75
2023-05-18T14:45:39.792Z,18.70
2023-05-18T14:48:11.276Z,18.58
2023-05-18T14:50:42.751Z,18.49
2023-05-18T14:53:14.284Z,18.55
2023-05-18T14:55:45.835Z,18.48
2023-05-18T14:58:17.140Z,18.32
2023-05-18T15:00:48.459Z,18.34
2023-05-18T15:03:19.872Z,18.42
2023-05-18T15:05:51.361Z,18.47
2023-05-18T15:08:22.707Z,18.55
2023-05-18T15:10:54.360Z,18.56
2023-05-18T15:13:25.749Z,18.65
2023-05-18T15:15:57.580Z,18.68
2023-05-18T15:18:28.921Z,18.60
2023-05-18T15:21:00.412Z,18.71
2023-05-18T15:23:32.134Z,18.59
2023-05-18T15:26:03.800Z,18.39
2023-05-18T15:28:35.216Z,18.28
2023-05-18T15:31:06.539Z,18.33
2023-05-18T15:33:42.022Z,18.37
2023-05-18T15:36:13.393Z,18.33
2023-05-18T15:38:44.838Z,18.29
2023-05-18T15:41:16.255Z,18.35
2023-05-18T15:43:47.765Z,18.39
2023-05-18T15:46:19.174Z,18.16
2023-05-18T15:48:50.941Z,18.23
2023-05-18T15:51:22.318Z,18.05
2023-05-18T15:53:53.845Z,17.94
2023-05-18T15:56:25.689Z,17.87
2023-05-18T15:58:57.079Z,18.00
2023-05-18T16:01:28.549Z,17.88
2023-05-18T16:04:00.194Z,17.73
2023-05-18T16:06:33.216Z,17.59
2023-05-18T16:09:04.598Z,17.49
2023-05-18T16:11:36.025Z,17.52
2023-05-18T16:14:07.472Z,17.49
2023-05-18T16:16:38.859Z,17.55
2023-05-18T16:19:10.424Z,17.58
2023-05-18T16:21:41.785Z,17.55
2023-05-18T16:24:13.077Z,17.48
2023-05-18T16:26:44.387Z,17.32
2023-05-18T16:29:15.733Z,17.15
2023-05-18T16:31:47.329Z,17.08
2023-05-18T16:34:18.741Z,17.03
2023-05-18T16:36:50.400Z,16.99
2023-05-18T16:39:21.717Z,17.02
2023-05-18T16:41:53.024Z,17.03
2023-05-18T16:44:24.463Z,16.98
2023-05-18T16:46:56.133Z,16.99
2023-05-18T16:49:27.551Z,16.97
2023-05-18T16:51:58.893Z,16.88
2023-05-18T16:54:30.227Z,17.05
2023-05-18T16:57:01.893Z,17.00
2023-05-18T16:59:34.449Z,17.09
2023-05-18T17:02:06.412Z,17.17
2023-05-18T17:04:40.580Z,16.99
2023-05-18T17:07:12.613Z,17.05
2023-05-18T17:09:44.428Z,17.07
2023-05-18T17:12:15.893Z,17.05
2023-05-18T17:14:47.720Z,16.74
2023-05-18T17:17:20.354Z,16.81
2023-05-18T17:19:51.803Z,16.68
2023-05-18T17:22:23.138Z,16.76
2023-05-18T17:24:54.448Z,16.77
2023-05-18T17:27:26.182Z,16.72
2023-05-18T17:29:57.814Z,16.63
2023-05-18T17:32:29.194Z,16.58
2023-05-18T17:35:01.400Z,16.57
2023-05-18T17:37:32.930Z,16.51
2023-05-18T17:40:05.134Z,16.55
2023-05-18T17:42:36.910Z,16.54
2023-05-18T17:45:09.021Z,16.50
2023-05-18T17:47:41.627Z,16.56
2023-05-18T17:50:14.021Z,16.53
2023-05-18T17:52:45.495Z,16.51
2023-05-18T17:55:17.060Z,16.47
2023-05-18T17:57:48.523Z,16.48
2023-05-18T18:00:20.377Z,16.48
2023-05-18T18:02:51.770Z,16.39
2023-05-18T18:05:23.180Z,16.35
2023-05-18T18:07:54.515Z,16.31
2023-05-18T18:10:26.986Z,16.26
2023-05-18T18:12:58.674Z,16.27
2023-05-18T18:15:30.253Z,16.17
2023-05-18T18:18:01.701Z,16.07
2023-05-18T18:20:36.490Z,16.11
2023-05-18T18:23:07.895Z,15.92
2023-05-18T18:25:39.464Z,15.84
2023-05-18T18:28:14.907Z,15.81
2023-05-18T18:30:47.091Z,15.76
2023-05-18T18:33:19.779Z,15.68
2023-05-18T18:35:52.176Z,15.50
2023-05-18T18:38:23.885Z,15.48
2023-05-18T18:41:01.240Z,15.32
2023-05-18T18:43:35.019Z,15.19
2023-05-18T18:46:06.512Z,15.05
2023-05-18T18:48:37.914Z,15.02
2023-05-18T18:51:09.238Z,14.91
2023-05-18T18:53:40.553Z,14.77
2023-05-18T18:56:11.926Z,14.69
2023-05-18T18:58:43.344Z,14.60
2023-05-18T19:01:14.808Z,14.43
2023-05-18T19:03:46.196Z,14.42
2023-05-18T19:06:17.605Z,14.31
2023-05-18T19:08:48.994Z,14.19
2023-05-18T19:11:21.990Z,14.11
2023-05-18T19:13:53.589Z,14.02
2023-05-18T19:16:25.852Z,13.92
2023-05-18T19:18:57.222Z,13.82
2023-05-18T19:21:29.058Z,13.74
2023-05-18T19:24:00.512Z,13.64
2023-05-18T19:26:32.478Z,13.53
2023-05-18T19:29:04.306Z,13.38
2023-05-18T19:31:36.982Z,13.37
2023-05-18T19:34:08.340Z,13.24
2023-05-18T19:36:39.866Z,13.18
2023-05-18T19:39:11.199Z,13.07
2023-05-18T19:41:43.503Z,12.86
2023-05-18T19:44:14.839Z,12.88
2023-05-18T19:46:48.714Z,12.78
2023-05-18T19:49:20.052Z,12.69
2023-05-18T19:51:51.389Z,12.60
2023-05-18T19:54:22.801Z,12.53
2023-05-18T19:56:55.737Z,12.35
2023-05-18T19:59:29.331Z,12.37
2023-05-18T20:02:00.861Z,12.14
2023-05-18T20:04:33.709Z,12.25
2023-05-18T20:07:05.416Z,12.09
2023-05-18T20:09:36.935Z,12.13
2023-05-18T20:12:08.490Z,12.01
2023-05-18T20:14:39.937Z,11.98
2023-05-18T20:17:11.251Z,11.96
2023-05-18T20:19:50.310Z,11.95
2023-05-18T20:22:21.708Z,11.89
2023-05-18T20:24:54.402Z,11.86
2023-05-18T20:27:26.182Z,11.77
2023-05-18T20:29:57.535Z,11.63
2023-05-18T20:32:29.416Z,11.54
2023-05-18T20:35:01.232Z,11.58
2023-05-18T20:37:34.473Z,11.49
2023-05-18T20:40:09.637Z,11.47
2023-05-18T20:42:41.149Z,11.41
2023-05-18T20:45:12.571Z,11.35
2023-05-18T20:47:43.962Z,11.30
2023-05-18T20:50:15.340Z,11.25
2023-05-18T20:52:47.511Z,11.17
2023-05-18T20:55:19.779Z,11.12
2023-05-18T20:57:51.311Z,11.16
2023-05-18T21:00:22.755Z,10.99
2023-05-18T21:02:54.299Z,10.92
2023-05-18T21:05:25.855Z,10.92
2023-05-18T21:07:58.158Z,11.00
2023-05-18T21:10:29.675Z,10.81
2023-05-18T21:13:01.292Z,10.90
2023-05-18T21:15:36.422Z,10.80
2023-05-18T21:18:07.871Z,10.68
2023-05-18T21:20:39.382Z,10.79
2023-05-18T21:23:10.819Z,10.77
2023-05-18T21:25:42.144Z,10.75
2023-05-18T21:28:13.456Z,10.74
2023-05-18T21:30:45.777Z,10.57
2023-05-18T21:33:17.175Z,10.69
2023-05-18T21:35:48.696Z,10.68
2023-05-18T21:38:20.094Z,10.62
2023-05-18T21:40:51.546Z,10.59
2023-05-18T21:43:23.535Z,10.55
2023-05-18T21:45:55.274Z,10.41
2023-05-18T21:48:26.678Z,10.46
2023-05-18T21:50:58.053Z,10.40
2023-05-18T21:53:29.665Z,10.37
2023-05-18T21:56:01.078Z,10.24
2023-05-18T21:58:32.504Z,10.28
2023-05-18T22:01:03.886Z,10.24
2023-05-18T22:03:35.292Z,10.09
2023-05-18T22:06:06.747Z,9.96
2023-05-18T22:08:39.357Z,9.99
2023-05-18T22:11:11.625Z,9.87
2023-05-18T22:13:42.966Z,9.88
2023-05-18T22:16:14.314Z,9.82
2023-05-18T22:18:45.783Z,9.89
2023-05-18T22:21:17.128Z,9.87
2023-05-18T22:23:48.458Z,9.80
2023-05-18T22:26:20.135Z,9.82
2023-05-18T22:28:51.474Z,9.74
2023-05-18T22:31:22.877Z,9.70
2023-05-18T22:33:55.367Z,9.71
2023-05-18T22:36:27.435Z,9.70
2023-05-18T22:38:58.873Z,9.63
2023-05-18T22:41:30.263Z,9.63
2023-05-18T22:44:01.710Z,9.60
2023-05-18T22:46:33.214Z,9.47
2023-05-18T22:49:06.513Z,9.38
2023-05-18T22:51:37.859Z,9.42
2023-05-18T22:54:09.151Z,9.30
2023-05-18T22:56:40.584Z,9.33
2023-05-18T22:59:11.994Z,9.28
2023-05-18T23:01:43.506Z,9.13
2023-05-18T23:04:17.937Z,9.14
2023-05-18T23:06:50.701Z,9.08
2023-05-18T23:09:22.104Z,8.89
2023-05-18T23:11:55.512Z,8.89
2023-05-18T23:14:32.248Z,8.80
2023-05-18T23:17:04.678Z,8.79
2023-05-18T23:19:36.157Z,8.78
2023-05-18T23:22:07.509Z,8.66
2023-05-18T23:24:38.816Z,8.65
2023-05-18T23:27:11.188Z,8.54
2023-05-18T23:29:42.735Z,8.61
2023-05-18T23:32:14.132Z,8.55
2023-05-18T23:34:45.776Z,8.41
2023-05-18T23:37:18.500Z,8.50
2023-05-18T23:39:53.733Z,8.48
2023-05-18T23:42:25.523Z,8.48
2023-05-18T23:44:57.290Z,8.36
2023-05-18T23:47:28.859Z,8.34
2023-05-18T23:50:00.414Z,8.42
2023-05-18T23:52:33.593Z,8.43
2023-05-18T23:55:07.613Z,8.40
2023-05-18T23:57:39.271Z,8.28
